Time;durP1;ratioP1;P1;durP2;ratioP2;P2;SDS_P1;SDS_P2;PMS_P1;PMS_P2;Temp;Humidity;BMP_temperature;BMP_pressure;BME280_temperature;BME280_humidity;BME280_pressure;Samples;Min_cycle;Max_cycle;Signal;HPM_P1;HPM_P2
2023/04/22 00:02:44;;;;;;;0.77;0.65;;;21.90;35.60;;;;;;6174060;28;20093;-52
2023/04/22 00:05:46;;;;;;;0.50;0.50;;;22.10;35.70;;;;;;6174597;28;20434;-48
2023/04/22 00:08:47;;;;;;;0.60;0.50;;;21.90;35.50;;;;;;6173988;28;20514;-49
2023/04/22 00:11:49;;;;;;;0.60;0.50;;;22.10;35.70;;;;;;6174115;28;20403;-52
2023/04/22 00:14:50;;;;;;;0.73;0.60;;;22.10;35.90;;;;;;6173922;28;20395;-52
2023/04/22 00:17:53;;;;;;;;;;;21.90;35.60;;;;;;6174336;28;20049;-51
2023/04/22 00:20:56;;;;;;;0.50;0.47;;;21.90;35.80;;;;;;6174662;28;19928;-51
2023/04/22 00:23:57;;;;;;;1.08;0.60;;;22.10;35.70;;;;;;6174328;28;20491;-51
2023/04/22 00:27:02;;;;;;;0.90;0.70;;;22.20;35.80;;;;;;6172323;28;20503;-52
2023/04/22 00:30:07;;;;;;;0.60;0.60;;;21.90;35.60;;;;;;6173783;28;20039;-51
2023/04/22 00:33:09;;;;;;;0.82;0.70;;;21.90;35.50;;;;;;6174197;28;20063;-52
2023/04/22 00:36:11;;;;;;;0.98;0.70;;;22.20;35.80;;;;;;6173511;28;20466;-50
2023/04/22 00:39:13;;;;;;;;;;;22.10;35.90;;;;;;6173987;28;20058;-48
2023/04/22 00:42:15;;;;;;;;;;;22.40;36.20;;;;;;6174305;28;20017;-52
2023/04/22 00:45:18;;;;;;;0.50;0.50;;;21.90;36.00;;;;;;6173620;28;20306;-52
2023/04/22 00:48:20;;;;;;;0.70;0.60;;;22.10;35.70;;;;;;6173276;28;20062;-51
2023/04/22 00:51:22;;;;;;;0.50;0.50;;;22.00;35.70;;;;;;6173739;28;20035;-48
2023/04/22 00:54:24;;;;;;;0.60;0.50;;;21.80;35.60;;;;;;6173291;28;20051;-48
2023/04/22 00:57:34;;;;;;;0.50;0.50;;;22.20;36.10;;;;;;6173220;28;20057;-51
2023/04/22 01:00:36;;;;;;;0.50;0.50;;;22.10;35.90;;;;;;6171797;28;20054;-50
2023/04/22 01:03:40;;;;;;;0.60;0.60;;;21.90;36.00;;;;;;6173527;28;20078;-51
2023/04/22 01:06:43;;;;;;;0.75;0.70;;;22.10;35.90;;;;;;6175741;28;20043;-42
2023/04/22 01:09:47;;;;;;;0.57;0.57;;;22.00;35.90;;;;;;6202206;28;20031;-41
2023/04/22 01:12:49;;;;;;;0.50;0.50;;;22.10;36.10;;;;;;6201785;28;20038;-39
2023/04/22 01:15:50;;;;;;;;;;;22.00;36.10;;;;;;6202042;28;20479;-43
2023/04/22 01:18:53;;;;;;;0.60;0.50;;;21.60;36.10;;;;;;6201995;28;19910;-44
2023/04/22 01:21:55;;;;;;;0.70;0.52;;;22.00;36.00;;;;;;6197909;23;20055;-46
2023/04/22 01:24:58;;;;;;;0.93;0.63;;;21.60;36.00;;;;;;6171882;28;20122;-45
2023/04/22 01:28:00;;;;;;;0.52;0.50;;;22.10;36.20;;;;;;6174305;28;20513;-45
2023/04/22 01:31:04;;;;;;;0.68;0.57;;;22.10;36.20;;;;;;6177316;28;20121;-50
2023/04/22 01:34:06;;;;;;;0.80;0.60;;;21.90;36.10;;;;;;6177040;28;20054;-49
2023/04/22 01:37:08;;;;;;;0.50;0.50;;;21.80;36.20;;;;;;6176779;28;20043;-48
2023/04/22 01:40:11;;;;;;;;;;;21.70;36.10;;;;;;6177625;28;20043;-45
2023/04/22 01:43:12;;;;;;;0.73;0.50;;;22.30;36.60;;;;;;6175798;28;19949;-50
2023/04/22 01:46:17;;;;;;;;;;;22.00;36.50;;;;;;6177367;28;20065;-46
2023/04/22 01:49:19;;;;;;;0.60;0.60;;;21.70;34.70;;;;;;6177304;28;20020;-45
2023/04/22 01:52:20;;;;;;;;;;;21.60;36.20;;;;;;6178163;28;20039;-47
2023/04/22 01:55:26;;;;;;;0.50;0.50;;;21.50;36.90;;;;;;6176968;28;19921;-48
2023/04/22 01:58:29;;;;;;;0.73;0.60;;;21.70;34.70;;;;;;6177181;28;20039;-48
2023/04/22 02:01:31;;;;;;;0.60;0.60;;;21.70;36.20;;;;;;6176988;28;20447;-47
2023/04/22 02:04:33;;;;;;;0.77;0.68;;;22.20;36.60;;;;;;6177412;28;20051;-47
2023/04/22 02:07:35;;;;;;;;;;;21.60;36.50;;;;;;6177523;28;20041;-47
2023/04/22 02:10:40;;;;;;;0.63;0.60;;;21.70;36.60;;;;;;6177345;28;19926;-48
2023/04/22 02:13:41;;;;;;;0.70;0.57;;;21.80;36.50;;;;;;6176534;28;20473;-45
2023/04/22 02:16:43;;;;;;;;;;;21.90;36.60;;;;;;6177273;28;20145;-47
2023/04/22 02:19:45;;;;;;;0.50;0.50;;;22.30;37.10;;;;;;6176503;28;19929;-46
2023/04/22 02:22:49;;;;;;;0.77;0.73;;;21.60;36.40;;;;;;6176938;28;20047;-45
2023/04/22 02:25:52;;;;;;;0.60;0.60;;;21.50;36.40;;;;;;6176673;28;20058;-51
2023/04/22 02:28:53;;;;;;;0.50;0.50;;;21.20;36.20;;;;;;6176289;28;20137;-46
2023/04/22 02:31:54;;;;;;;;;;;21.70;36.70;;;;;;6176755;28;20530;-47
2023/04/22 02:34:56;;;;;;;;;;;21.60;36.80;;;;;;6176974;28;19926;-47
2023/04/22 02:37:58;;;;;;;0.70;0.55;;;21.60;36.90;;;;;;6176522;28;20378;-49
2023/04/22 02:41:01;;;;;;;0.57;0.57;;;21.50;36.90;;;;;;6176215;28;20054;-48
2023/04/22 02:44:04;;;;;;;0.68;0.60;;;22.20;37.00;;;;;;6176360;28;20081;-46
2023/04/22 02:47:05;;;;;;;0.60;0.60;;;21.50;36.70;;;;;;6176031;28;20450;-48
2023/04/22 02:50:09;;;;;;;0.60;0.50;;;21.50;37.20;;;;;;6175988;28;20047;-46
2023/04/22 02:53:10;;;;;;;0.70;0.60;;;21.70;36.60;;;;;;6176519;28;20038;-48
2023/04/22 02:56:12;;;;;;;;;;;22.20;37.00;;;;;;6176335;28;20047;-46
2023/04/22 02:59:15;;;;;;;0.40;0.40;;;21.90;37.10;;;;;;6175855;28;20330;-46
2023/04/22 03:02:17;;;;;;;0.60;0.60;;;21.60;36.70;;;;;;6176420;28;20046;-48
2023/04/22 03:05:37;;;;;;;0.50;0.50;;;21.50;36.60;;;;;;6175904;28;20035;-45
2023/04/22 03:08:41;;;;;;;0.40;0.40;;;21.70;37.10;;;;;;6175608;28;20053;-45
2023/04/22 03:11:44;;;;;;;0.65;0.63;;;21.40;36.60;;;;;;6175416;28;20055;-46
2023/04/22 03:14:45;;;;;;;0.73;0.50;;;21.40;36.60;;;;;;6175832;28;20067;-48
2023/04/22 03:17:47;;;;;;;0.80;0.70;;;21.50;36.60;;;;;;6175566;28;20062;-48
2023/04/22 03:20:49;;;;;;;0.50;0.50;;;21.50;36.50;;;;;;6175933;28;20061;-48
2023/04/22 03:23:52;;;;;;;0.60;0.50;;;21.80;36.60;;;;;;6175570;28;20054;-47
2023/04/22 03:26:54;;;;;;;;;;;21.40;36.50;;;;;;6175767;28;20050;-50
2023/04/22 03:29:55;;;;;;;0.50;0.40;;;21.90;37.00;;;;;;6175570;28;20289;-47
2023/04/22 03:32:57;;;;;;;;;;;21.40;36.70;;;;;;6175835;28;20062;-47
2023/04/22 03:36:08;;;;;;;0.50;0.50;;;21.90;37.00;;;;;;6175265;28;19961;-46
2023/04/22 03:39:10;;;;;;;0.70;0.70;;;21.40;36.40;;;;;;6175061;28;20522;-49
2023/04/22 03:42:16;;;;;;;0.50;0.40;;;21.10;36.40;;;;;;6175355;28;20082;-47
2023/04/22 03:45:18;;;;;;;0.70;0.70;;;21.30;36.60;;;;;;6174955;28;20058;-47
2023/04/22 03:48:28;;;;;;;0.88;0.60;;;21.80;37.00;;;;;;6174899;28;20042;-47
2023/04/22 03:51:33;;;;;;;0.60;0.60;;;21.60;36.80;;;;;;6174553;28;20125;-49
2023/04/22 03:54:39;;;;;;;0.63;0.63;;;21.40;36.90;;;;;;6174878;28;20054;-46
2023/04/22 03:57:42;;;;;;;0.65;0.65;;;21.30;37.10;;;;;;6175195;28;20043;-48
2023/04/22 04:00:44;;;;;;;0.90;0.60;;;21.50;37.30;;;;;;6175062;28;20043;-45
2023/04/22 04:03:49;;;;;;;0.60;0.60;;;21.40;37.50;;;;;;6174856;28;20121;-45
2023/04/22 04:06:54;;;;;;;0.63;0.60;;;21.30;37.50;;;;;;6174601;28;20550;-48
2023/04/22 04:09:57;;;;;;;0.70;0.70;;;21.30;37.70;;;;;;6174713;28;20043;-46
2023/04/22 04:12:59;;;;;;;0.63;0.55;;;21.40;38.00;;;;;;6174156;28;20485;-48
2023/04/22 04:16:03;;;;;;;0.60;0.60;;;21.60;38.50;;;;;;6174581;28;20070;-48
2023/04/22 04:19:06;;;;;;;0.70;0.63;;;21.50;38.30;;;;;;6174353;28;20038;-46
2023/04/22 04:22:10;;;;;;;0.77;0.60;;;21.50;38.60;;;;;;6174441;28;20082;-48
2023/04/22 04:25:22;;;;;;;0.43;0.43;;;21.30;38.60;;;;;;6174398;28;20043;-46
2023/04/22 04:28:24;;;;;;;0.70;0.60;;;21.40;38.90;;;;;;6172875;28;20062;-45
2023/04/22 04:31:26;;;;;;;0.68;0.68;;;21.30;39.10;;;;;;6174455;28;20493;-46
2023/04/22 04:34:33;;;;;;;0.60;0.52;;;21.20;39.10;;;;;;6174322;28;20069;-48
2023/04/22 04:37:35;;;;;;;0.50;0.50;;;21.70;39.50;;;;;;6174142;28;20076;-49
2023/04/22 04:40:44;;;;;;;0.70;0.70;;;21.70;39.70;;;;;;6174631;28;20039;-48
2023/04/22 04:43:51;;;;;;;0.80;0.65;;;22.00;39.90;;;;;;6174075;28;20043;-46
2023/04/22 04:47:01;;;;;;;0.68;0.60;;;21.40;39.70;;;;;;6173951;28;20047;-46
2023/04/22 04:50:04;;;;;;;0.88;0.77;;;21.40;40.00;;;;;;6174319;28;20495;-48
2023/04/22 04:53:08;;;;;;;0.77;0.50;;;21.50;39.90;;;;;;6174061;28;20130;-48
2023/04/22 04:56:13;;;;;;;0.75;0.60;;;21.80;40.20;;;;;;6173868;28;20082;-47
2023/04/22 04:59:15;;;;;;;;;;;21.30;40.00;;;;;;6174599;28;20117;-45
2023/04/22 05:02:17;;;;;;;0.85;0.70;;;21.40;40.30;;;;;;6174499;28;19937;-47
2023/04/22 05:05:20;;;;;;;0.88;0.77;;;21.30;40.00;;;;;;6178083;28;20375;-49
2023/04/22 05:08:21;;;;;;;0.65;0.60;;;21.40;40.20;;;;;;6178259;28;20051;-47
2023/04/22 05:11:25;;;;;;;0.60;0.60;;;21.30;40.20;;;;;;6177975;28;20078;-45
2023/04/22 05:14:30;;;;;;;0.50;0.40;;;21.10;40.80;;;;;;6177839;28;20054;-46
2023/04/22 05:17:31;;;;;;;0.63;0.60;;;21.10;39.90;;;;;;6178341;28;20042;-46
2023/04/22 05:20:33;;;;;;;0.68;0.63;;;21.20;40.20;;;;;;6178171;28;20074;-45
2023/04/22 05:23:38;;;;;;;0.65;0.55;;;21.30;40.20;;;;;;6177707;28;20101;-46
2023/04/22 05:26:41;;;;;;;0.70;0.60;;;21.30;40.10;;;;;;6177622;28;20557;-45
2023/04/22 05:29:50;;;;;;;0.47;0.45;;;21.20;40.20;;;;;;6177542;28;20066;-46
2023/04/22 05:32:57;;;;;;;0.70;0.70;;;21.60;40.40;;;;;;6177828;28;20525;-49
2023/04/22 05:35:58;;;;;;;;;;;21.50;40.40;;;;;;6178174;28;20090;-49
2023/04/22 05:39:00;;;;;;;;;;;21.70;40.60;;;;;;6178557;28;19926;-45
2023/04/22 05:42:05;;;;;;;0.65;0.55;;;21.20;40.40;;;;;;6177730;28;20294;-46
2023/04/22 05:45:09;;;;;;;0.88;0.75;;;21.40;40.40;;;;;;6177901;28;20035;-45
2023/04/22 05:48:12;;;;;;;0.75;0.68;;;21.30;40.10;;;;;;6177184;28;20078;-45
2023/04/22 05:51:22;;;;;;;0.70;0.50;;;21.60;40.50;;;;;;6177018;28;20486;-47
2023/04/22 05:54:24;;;;;;;0.80;0.65;;;21.60;40.60;;;;;;6159804;28;20521;-47
2023/04/22 05:57:25;;;;;;;;;;;21.60;40.50;;;;;;6177509;28;20074;-46
2023/04/22 06:00:28;;;;;;;0.50;0.40;;;21.20;40.60;;;;;;6176954;28;19922;-47
2023/04/22 06:03:45;;;;;;;0.63;0.50;;;21.50;40.60;;;;;;6176737;28;20043;-50
2023/04/22 06:06:47;;;;;;;0.55;0.55;;;21.60;40.60;;;;;;6177003;28;20130;-48
2023/04/22 06:09:49;;;;;;;0.50;0.50;;;21.60;40.40;;;;;;6176798;28;20050;-47
2023/04/22 06:12:57;;;;;;;0.70;0.70;;;21.70;40.40;;;;;;6176081;28;20118;-47
2023/04/22 06:16:00;;;;;;;0.60;0.60;;;21.70;40.40;;;;;;6176985;28;20411;-47
2023/04/22 06:19:01;;;;;;;0.57;0.50;;;21.60;40.30;;;;;;6176689;28;20170;-48
2023/04/22 06:22:05;;;;;;;0.60;0.60;;;21.00;39.90;;;;;;6176776;28;20046;-46
2023/04/22 06:25:07;;;;;;;0.75;0.70;;;21.40;40.40;;;;;;6176493;28;20047;-46
2023/04/22 06:28:08;;;;;;;0.60;0.60;;;21.60;40.30;;;;;;6176566;28;20046;-46
2023/04/22 06:31:15;;;;;;;0.60;0.60;;;21.30;40.30;;;;;;6176353;28;20051;-45
2023/04/22 06:34:18;;;;;;;0.90;0.55;;;21.60;40.40;;;;;;6176307;28;20077;-47
2023/04/22 06:37:20;;;;;;;0.70;0.60;;;21.90;40.60;;;;;;6176748;28;20042;-51
2023/04/22 06:40:22;;;;;;;0.55;0.55;;;21.30;40.10;;;;;;6176171;28;20058;-45
2023/04/22 06:43:37;;;;;;;0.73;0.70;;;21.30;40.50;;;;;;6176820;28;20038;-49
2023/04/22 06:51:59;;;;;;;0.80;0.80;;;21.90;38.50;;;;;;6176415;28;20484;-45
2023/04/22 06:55:02;;;;;;;0.55;0.50;;;21.10;40.00;;;;;;6176270;28;20075;-49
2023/04/22 06:58:07;;;;;;;0.63;0.63;;;21.50;40.10;;;;;;6174780;28;20054;-47
2023/04/22 07:01:09;;;;;;;0.50;0.50;;;21.70;40.20;;;;;;6175696;28;20050;-46
2023/04/22 07:04:14;;;;;;;0.50;0.50;;;21.70;40.30;;;;;;6176162;28;20118;-47
2023/04/22 07:07:16;;;;;;;0.70;0.70;;;21.40;40.00;;;;;;6175674;28;20517;-47
2023/04/22 07:10:18;;;;;;;0.90;0.70;;;21.10;39.60;;;;;;6176271;28;20118;-45
2023/04/22 07:13:39;;;;;;;;;;;21.30;39.80;;;;;;6176129;28;20047;-48
2023/04/22 07:16:41;;;;;;;0.77;0.63;;;21.20;40.00;;;;;;6175649;28;19922;-46
2023/04/22 07:19:42;;;;;;;0.70;0.57;;;21.20;39.80;;;;;;6175817;28;20545;-46
2023/04/22 07:22:44;;;;;;;;;;;21.90;40.10;;;;;;6175961;28;20042;-46
2023/04/22 07:25:46;;;;;;;0.65;0.65;;;;;;;;;;6173348;28;19922;-49
2023/04/22 07:28:48;;;;;;;0.50;0.50;;;21.50;37.40;;;;;;6175523;28;20059;-46
2023/04/22 07:31:49;;;;;;;;;;;21.70;39.80;;;;;;6176019;28;20047;-50
2023/04/22 07:34:53;;;;;;;0.65;0.55;;;21.30;39.90;;;;;;6175757;28;19922;-45
2023/04/22 07:37:57;;;;;;;0.60;0.45;;;21.20;39.50;;;;;;6175157;28;20075;-49
2023/04/22 07:40:59;;;;;;;0.95;0.70;;;21.50;39.50;;;;;;6175370;28;20050;-47
2023/04/22 07:44:02;;;;;;;0.70;0.70;;;21.40;39.50;;;;;;6175086;28;20043;-47
2023/04/22 07:47:03;;;;;;;0.52;0.52;;;21.60;39.50;;;;;;6174856;28;20085;-49
2023/04/22 07:50:06;;;;;;;0.50;0.50;;;21.30;39.20;;;;;;6175259;28;20039;-48
2023/04/22 07:53:09;;;;;;;0.90;0.60;;;21.20;39.10;;;;;;6175462;28;20035;-49
2023/04/22 07:56:11;;;;;;;0.60;0.60;;;21.60;39.30;;;;;;6175564;28;20046;-47
2023/04/22 07:59:12;;;;;;;;;;;21.30;39.20;;;;;;6175455;28;20059;-46
2023/04/22 08:02:14;;;;;;;0.50;0.43;;;21.50;39.70;;;;;;6174740;28;19922;-45
2023/04/22 08:05:15;;;;;;;0.85;0.70;;;21.80;39.40;;;;;;6174752;28;20047;-48
2023/04/22 08:08:17;;;;;;;0.70;0.60;;;21.80;39.50;;;;;;6174882;28;20074;-45
2023/04/22 08:11:19;;;;;;;1.10;0.70;;;21.60;39.40;;;;;;6174782;28;20045;-46
2023/04/22 08:14:20;;;;;;;0.40;0.38;;;21.30;39.30;;;;;;6156679;28;20054;-46
2023/04/22 08:17:22;;;;;;;0.40;0.32;;;21.30;39.20;;;;;;6174706;28;20045;-47
2023/04/22 08:20:24;;;;;;;0.60;0.60;;;21.40;39.20;;;;;;6174465;28;20051;-51
2023/04/22 08:23:27;;;;;;;0.50;0.40;;;21.50;39.10;;;;;;6174360;28;20086;-45
2023/04/22 08:26:31;;;;;;;0.63;0.63;;;21.40;39.00;;;;;;6174858;28;20047;-50
2023/04/22 08:29:32;;;;;;;;;;;21.60;39.00;;;;;;6174745;28;20114;-46
2023/04/22 08:32:34;;;;;;;;;;;21.80;39.80;;;;;;6174617;28;19922;-49
2023/04/22 08:35:39;;;;;;;0.90;0.52;;;21.50;39.10;;;;;;6173319;28;19968;-49
2023/04/22 08:38:41;;;;;;;0.50;0.47;;;21.60;38.70;;;;;;6178369;28;20541;-48
2023/04/22 08:41:44;;;;;;;0.47;0.47;;;21.80;38.90;;;;;;6179135;28;20410;-48
2023/04/22 08:44:50;;;;;;;0.52;0.50;;;21.50;38.80;;;;;;6177838;28;20483;-48
2023/04/22 08:47:53;;;;;;;0.65;0.63;;;22.00;39.20;;;;;;6178442;28;20383;-46
2023/04/22 08:50:55;;;;;;;0.77;0.75;;;21.60;39.00;;;;;;6178329;28;20045;-45
2023/04/22 08:53:57;;;;;;;0.60;0.60;;;21.70;39.00;;;;;;6178135;28;20425;-50
2023/04/22 08:57:01;;;;;;;0.73;0.63;;;21.60;39.00;;;;;;6178588;28;20383;-50
2023/04/22 09:00:04;;;;;;;0.70;0.70;;;21.60;39.10;;;;;;6178841;28;20038;-50
2023/04/22 09:03:06;;;;;;;1.10;0.70;;;22.10;39.20;;;;;;6178028;28;20049;-48
2023/04/22 09:06:10;;;;;;;1.00;0.75;;;21.60;39.00;;;;;;6178551;28;20042;-46
2023/04/22 09:09:13;;;;;;;0.73;0.73;;;21.60;39.00;;;;;;6176814;28;20046;-47
2023/04/22 09:12:16;;;;;;;0.90;0.80;;;21.70;39.10;;;;;;6177759;28;20047;-46
2023/04/22 09:15:18;;;;;;;0.60;0.60;;;21.60;39.20;;;;;;6178140;28;20066;-49
2023/04/22 09:18:20;;;;;;;0.50;0.50;;;22.00;39.50;;;;;;6177791;28;20054;-46
2023/04/22 09:21:25;;;;;;;0.85;0.50;;;22.20;39.70;;;;;;6177627;28;20097;-47
2023/04/22 09:24:27;;;;;;;1.00;0.70;;;21.10;39.00;;;;;;6178104;28;20043;-50
2023/04/22 09:27:28;;;;;;;0.70;0.55;;;22.10;39.80;;;;;;6177428;28;20038;-46
2023/04/22 09:30:36;;;;;;;0.70;0.70;;;21.80;39.50;;;;;;6178202;28;20065;-47
2023/04/22 09:33:38;;;;;;;1.02;0.65;;;21.80;39.40;;;;;;6177711;28;20043;-46
2023/04/22 09:36:42;;;;;;;0.70;0.60;;;21.70;39.80;;;;;;6177860;28;20379;-49
2023/04/22 09:39:47;;;;;;;0.57;0.57;;;21.60;39.40;;;;;;6175890;28;20059;-49
2023/04/22 09:42:52;;;;;;;0.60;0.57;;;21.70;39.40;;;;;;6177853;28;20051;-47
2023/04/22 09:45:59;;;;;;;0.60;0.60;;;21.90;39.60;;;;;;6161408;28;20039;-49
2023/04/22 09:49:01;;;;;;;0.40;0.40;;;21.70;39.60;;;;;;6175130;28;20052;-48
2023/04/22 09:52:02;;;;;;;0.60;0.50;;;22.00;40.00;;;;;;6176040;28;20045;-49
2023/04/22 09:55:07;;;;;;;;;;;22.00;40.10;;;;;;6191841;28;20051;-48
2023/04/22 09:58:10;;;;;;;0.68;0.60;;;22.00;40.40;;;;;;6177616;28;19938;-46
2023/04/22 10:01:13;;;;;;;0.60;0.57;;;22.10;39.90;;;;;;6176920;28;20035;-48
2023/04/22 10:04:19;;;;;;;0.52;0.45;;;22.20;40.10;;;;;;6178018;28;20046;-46
2023/04/22 10:07:21;;;;;;;0.60;0.60;;;22.20;40.40;;;;;;6176707;28;20039;-48
2023/04/22 10:10:23;;;;;;;0.75;0.50;;;22.20;40.30;;;;;;6176558;28;20510;-49
2023/04/22 10:13:25;;;;;;;0.50;0.50;;;22.10;40.40;;;;;;6175306;28;20046;-47
2023/04/22 10:16:30;;;;;;;0.80;0.70;;;22.20;40.40;;;;;;6176533;28;20439;-49
2023/04/22 10:19:33;;;;;;;0.45;0.32;;;21.60;40.00;;;;;;6159834;28;20078;-46
2023/04/22 10:22:37;;;;;;;0.50;0.40;;;21.50;40.00;;;;;;6175434;28;20041;-46
2023/04/22 10:25:40;;;;;;;0.40;0.40;;;22.00;40.40;;;;;;6176699;28;20054;-50
2023/04/22 10:28:43;;;;;;;0.45;0.45;;;21.80;40.10;;;;;;6177032;28;20039;-47
2023/04/22 10:31:50;;;;;;;0.40;0.38;;;21.90;40.60;;;;;;6175270;28;20042;-47
2023/04/22 10:35:08;;;;;;;0.50;0.50;;;22.20;40.40;;;;;;6176242;28;20522;-47
2023/04/22 10:38:11;;;;;;;0.30;0.30;;;21.80;40.20;;;;;;6175792;28;20050;-48
2023/04/22 10:41:14;;;;;;;0.63;0.50;;;22.10;40.70;;;;;;6177051;28;20046;-47
2023/04/22 10:44:16;;;;;;;0.80;0.55;;;22.10;40.50;;;;;;6174650;28;20051;-47
2023/04/22 10:47:26;;;;;;;0.45;0.40;;;22.20;40.70;;;;;;6176506;28;20042;-48
2023/04/22 10:50:32;;;;;;;0.57;0.38;;;22.30;40.60;;;;;;6175428;28;20043;-45
2023/04/22 10:53:36;;;;;;;0.40;0.30;;;22.30;40.80;;;;;;6174724;28;20046;-50
2023/04/22 10:57:00;;;;;;;0.55;0.43;;;22.00;40.50;;;;;;6175088;28;20094;-46
2023/04/22 11:00:17;;;;;;;0.50;0.40;;;22.00;40.60;;;;;;6175091;28;20039;-50
2023/04/22 11:03:25;;;;;;;0.32;0.32;;;21.80;40.40;;;;;;6176238;28;20502;-48
2023/04/22 11:06:29;;;;;;;0.60;0.50;;;22.20;40.70;;;;;;6158830;28;20386;-50
2023/04/22 11:09:30;;;;;;;0.45;0.30;;;22.30;41.00;;;;;;6175586;28;20521;-47
2023/04/22 11:12:41;;;;;;;0.50;0.38;;;22.50;41.00;;;;;;6175898;28;20034;-48
2023/04/22 11:15:45;;;;;;;0.30;0.30;;;22.20;41.00;;;;;;6174058;28;20046;-47
2023/04/22 11:18:47;;;;;;;0.40;0.40;;;22.20;40.70;;;;;;6174743;28;20130;-49
2023/04/22 11:21:49;;;;;;;0.20;0.20;;;22.20;40.80;;;;;;6175654;28;20054;-48
2023/04/22 11:24:53;;;;;;;0.38;0.38;;;22.30;40.90;;;;;;6173916;28;20051;-47
2023/04/22 11:27:57;;;;;;;0.47;0.20;;;22.20;40.90;;;;;;6175244;28;20043;-47
2023/04/22 11:31:04;;;;;;;0.52;0.40;;;22.10;40.80;;;;;;6175627;28;20043;-47
2023/04/22 11:34:08;;;;;;;0.50;0.30;;;22.50;40.80;;;;;;6174381;28;20035;-49
2023/04/22 11:37:10;;;;;;;0.40;0.40;;;22.30;40.90;;;;;;6175823;28;20043;-47
2023/04/22 11:40:17;;;;;;;0.28;0.20;;;22.20;40.80;;;;;;6175671;28;20155;-47
2023/04/22 11:43:44;;;;;;;0.20;0.20;;;22.70;41.10;;;;;;6175332;28;20035;-48
2023/04/22 11:46:46;;;;;;;0.43;0.28;;;22.40;40.80;;;;;;6175404;28;20046;-47
2023/04/22 11:49:55;;;;;;;0.20;0.20;;;22.40;41.10;;;;;;6174778;28;20415;-47
2023/04/22 11:53:00;;;;;;;0.30;0.20;;;22.80;40.90;;;;;;6174829;28;20610;-50
2023/04/22 11:56:02;;;;;;;0.22;0.22;;;22.50;40.70;;;;;;6157859;28;20042;-50
2023/04/22 11:59:08;;;;;;;0.30;0.30;;;22.30;40.60;;;;;;6173639;28;20407;-48
2023/04/22 12:02:10;;;;;;;0.28;0.20;;;22.40;41.20;;;;;;6175159;28;20534;-49
2023/04/22 12:05:12;;;;;;;0.20;0.20;;;22.40;41.20;;;;;;6174703;28;20129;-50
2023/04/22 12:08:17;;;;;;;0.57;0.25;;;22.70;40.80;;;;;;6174366;28;20070;-50
2023/04/22 12:11:20;;;;;;;0.40;0.20;;;22.40;40.50;;;;;;6156833;28;20525;-50
2023/04/22 12:14:30;;;;;;;0.45;0.25;;;22.80;40.90;;;;;;6174619;28;20380;-48
2023/04/22 12:17:38;;;;;;;0.20;0.20;;;21.80;40.30;;;;;;6174465;28;20438;-46
2023/04/22 12:20:42;;;;;;;0.32;0.20;;;22.80;40.30;;;;;;6174776;28;20045;-49
2023/04/22 12:23:48;;;;;;;0.30;0.30;;;22.50;40.80;;;;;;6174306;28;20050;-48
2023/04/22 12:26:49;;;;;;;0.35;0.20;;;22.30;40.80;;;;;;6174825;28;20050;-51
2023/04/22 12:29:52;;;;;;;;;;;22.40;41.10;;;;;;6174282;28;20106;-50
2023/04/22 12:32:54;;;;;;;0.28;0.10;;;23.10;41.60;;;;;;6174908;28;19922;-50
2023/04/22 12:35:58;;;;;;;;;;;22.20;41.60;;;;;;6174883;28;20408;-51
2023/04/22 12:38:59;;;;;;;0.17;0.17;;;23.20;41.80;;;;;;6173251;28;19941;-49
2023/04/22 12:42:01;;;;;;;;;;;22.50;41.40;;;;;;6174533;28;20043;-49
2023/04/22 12:45:06;;;;;;;0.30;0.22;;;22.70;41.80;;;;;;6174334;28;20013;-49
2023/04/22 12:48:07;;;;;;;0.52;0.20;;;22.70;41.40;;;;;;6174014;28;20479;-47
2023/04/22 12:51:09;;;;;;;0.52;0.20;;;22.40;41.60;;;;;;6174285;28;20399;-49
2023/04/22 12:54:10;;;;;;;0.47;0.30;;;22.60;41.90;;;;;;6172741;28;20042;-47
2023/04/22 12:57:12;;;;;;;0.28;0.10;;;22.50;41.40;;;;;;6174028;28;20035;-47
2023/04/22 13:00:15;;;;;;;0.20;0.20;;;22.70;41.20;;;;;;6173883;28;20487;-49
2023/04/22 13:03:16;;;;;;;0.60;0.25;;;22.50;40.90;;;;;;6172685;28;20035;-47
2023/04/22 13:06:18;;;;;;;0.30;0.15;;;;;;;;;;6173848;28;20053;-50
2023/04/22 13:09:20;;;;;;;0.20;0.20;;;22.90;39.40;;;;;;6174417;28;20050;-47
2023/04/22 13:12:21;;;;;;;;;;;22.70;40.60;;;;;;6174363;28;20050;-52
2023/04/22 13:15:25;;;;;;;0.20;0.10;;;22.70;40.90;;;;;;6173962;28;19922;-51
2023/04/22 13:18:29;;;;;;;0.20;0.10;;;22.40;40.40;;;;;;6173628;28;20526;-49
2023/04/22 13:21:33;;;;;;;0.10;0.10;;;23.10;40.70;;;;;;6171909;28;20101;-48
2023/04/22 13:24:34;;;;;;;0.15;0.10;;;23.10;40.60;;;;;;6176052;28;20446;-49
2023/04/22 13:27:36;;;;;;;0.10;0.10;;;23.00;40.90;;;;;;6177952;28;20043;-50
2023/04/22 13:30:38;;;;;;;0.10;0.10;;;22.80;40.70;;;;;;6176986;28;20046;-47
2023/04/22 13:33:41;;;;;;;0.10;0.10;;;22.60;40.10;;;;;;6177685;28;20047;-48
2023/04/22 13:36:42;;;;;;;0.45;0.20;;;22.80;40.20;;;;;;6178099;28;20447;-51
2023/04/22 13:39:43;;;;;;;;;;;22.80;40.10;;;;;;6178068;28;20043;-47
2023/04/22 13:42:45;;;;;;;0.32;0.10;;;22.90;40.70;;;;;;6177717;28;19954;-48
2023/04/22 13:45:47;;;;;;;0.20;0.20;;;23.10;40.30;;;;;;6177989;28;20038;-46
2023/04/22 13:48:49;;;;;;;0.20;0.20;;;22.60;40.10;;;;;;6175946;28;20046;-46
2023/04/22 13:51:50;;;;;;;0.13;0.13;;;22.50;39.90;;;;;;6177516;28;20435;-48
2023/04/22 13:54:54;;;;;;;0.17;0.17;;;24.10;40.80;;;;;;6175874;28;20046;-49
2023/04/22 13:57:56;;;;;;;0.30;0.20;;;;;;;;;;6177320;28;20051;-49
2023/04/22 14:00:58;;;;;;;0.20;0.20;;;22.90;38.70;;;;;;6177305;28;20070;-48
2023/04/22 14:04:00;;;;;;;0.17;0.15;;;23.10;40.10;;;;;;6177054;28;20455;-48
2023/04/22 14:07:02;;;;;;;0.10;0.10;;;23.00;40.20;;;;;;6176778;28;20096;-46
2023/04/22 14:10:06;;;;;;;0.10;0.10;;;22.80;40.10;;;;;;6176991;28;20050;-47
2023/04/22 14:13:08;;;;;;;0.20;0.10;;;22.60;39.80;;;;;;6177149;28;20102;-49
2023/04/22 14:16:10;;;;;;;0.20;0.20;;;22.90;40.20;;;;;;6176676;28;20070;-47
2023/04/22 14:19:13;;;;;;;0.20;0.20;;;23.10;40.40;;;;;;6176998;28;20147;-46
2023/04/22 14:22:15;;;;;;;0.80;0.25;;;22.60;40.00;;;;;;6158836;28;20050;-49
2023/04/22 14:25:16;;;;;;;0.32;0.22;;;22.70;40.30;;;;;;6176564;28;20045;-49
2023/04/22 14:28:18;;;;;;;0.73;0.20;;;23.00;40.70;;;;;;6176157;28;20086;-49
2023/04/22 14:31:22;;;;;;;0.30;0.20;;;22.80;40.50;;;;;;6175670;28;20471;-46
2023/04/22 14:34:25;;;;;;;0.30;0.20;;;22.90;41.10;;;;;;6174700;28;20078;-48
2023/04/22 14:37:28;;;;;;;0.50;0.20;;;22.90;40.80;;;;;;6175046;28;20046;-47
2023/04/22 14:40:29;;;;;;;0.40;0.10;;;22.60;40.60;;;;;;6176897;28;20047;-49
2023/04/22 14:43:32;;;;;;;0.30;0.13;;;22.70;40.60;;;;;;6175124;28;20061;-48
2023/04/22 14:46:35;;;;;;;0.25;0.20;;;22.70;40.70;;;;;;6176538;28;20556;-47
2023/04/22 14:49:39;;;;;;;0.25;0.20;;;23.20;41.00;;;;;;6176148;28;20406;-49
2023/04/22 14:52:41;;;;;;;0.70;0.50;;;22.70;40.80;;;;;;6176084;28;20053;-48
2023/04/22 14:55:46;;;;;;;0.40;0.20;;;22.40;40.70;;;;;;6176297;28;20491;-51
2023/04/22 14:58:47;;;;;;;0.30;0.20;;;23.50;41.60;;;;;;6176028;28;20043;-46
2023/04/22 15:01:51;;;;;;;0.52;0.30;;;22.60;41.10;;;;;;6175892;28;20045;-48
2023/04/22 15:04:53;;;;;;;0.43;0.20;;;22.60;40.90;;;;;;6175982;28;20051;-49
2023/04/22 15:07:56;;;;;;;0.40;0.20;;;23.10;41.30;;;;;;6175651;28;20043;-47
2023/04/22 15:10:58;;;;;;;0.28;0.20;;;22.00;40.80;;;;;;6175946;28;20490;-50
2023/04/22 15:14:00;;;;;;;0.95;0.28;;;23.00;41.40;;;;;;6175535;28;20035;-50
2023/04/22 15:17:03;;;;;;;0.13;0.10;;;23.20;41.70;;;;;;6175563;28;20043;-49
2023/04/22 15:20:05;;;;;;;0.10;0.10;;;22.80;41.40;;;;;;6174272;28;20094;-46
2023/04/22 15:23:10;;;;;;;0.20;0.20;;;23.10;41.30;;;;;;6174928;28;20054;-46
2023/04/22 15:26:14;;;;;;;;;;;23.20;41.90;;;;;;6175763;28;20069;-50
2023/04/22 15:29:16;;;;;;;0.20;0.20;;;23.20;40.70;;;;;;6175614;28;20012;-48
2023/04/22 15:32:18;;;;;;;;;;;22.70;40.90;;;;;;6176551;28;20151;-48
2023/04/22 15:35:20;;;;;;;0.30;0.30;;;23.20;41.30;;;;;;6175279;28;19922;-47
2023/04/22 15:38:25;;;;;;;0.22;0.20;;;23.20;41.10;;;;;;6174882;28;20055;-50
2023/04/22 15:41:27;;;;;;;0.20;0.20;;;23.20;41.00;;;;;;6175134;28;20043;-51
2023/04/22 15:44:29;;;;;;;0.30;0.30;;;22.80;41.40;;;;;;6175776;28;20479;-50
2023/04/22 15:47:34;;;;;;;0.38;0.20;;;23.50;41.40;;;;;;6174435;28;20050;-50
2023/04/22 15:50:35;;;;;;;0.20;0.10;;;23.30;41.20;;;;;;6175096;28;20043;-49
2023/04/22 15:53:44;;;;;;;0.60;0.28;;;23.40;41.90;;;;;;6173567;28;20051;-51
2023/04/22 15:56:48;;;;;;;0.57;0.20;;;23.20;41.50;;;;;;6175410;28;20463;-47
2023/04/22 15:59:50;;;;;;;0.25;0.13;;;23.20;41.60;;;;;;6174910;28;20042;-50
2023/04/22 16:03:04;;;;;;;0.20;0.20;;;22.70;41.50;;;;;;6175409;28;20475;-49
2023/04/22 16:06:06;;;;;;;0.15;0.10;;;22.30;41.50;;;;;;6174536;28;20051;-47
2023/04/22 16:09:08;;;;;;;0.20;0.20;;;23.20;42.40;;;;;;6174941;28;20078;-48
2023/04/22 16:12:13;;;;;;;0.40;0.20;;;22.90;42.20;;;;;;6175226;28;20476;-48